Time;durP1;ratioP1;P1;durP2;ratioP2;P2;SDS_P1;SDS_P2;PMS_P1;PMS_P2;Temp;Humidity;BMP_temperature;BMP_pressure;BME280_temperature;BME280_humidity;BME280_pressure;Samples;Min_cycle;Max_cycle;Signal;HPM_P1;HPM_P2
2022/12/25 00:01:24;;;;;;;12.15;7.45;;;29.00;83.80;;;;;;5050327;28;20087;-68
2022/12/25 00:03:52;;;;;;;10.60;8.02;;;29.20;82.40;;;;;;5037940;28;20091;-68
2022/12/25 00:06:20;;;;;;;13.32;7.85;;;29.80;83.00;;;;;;5044533;28;20040;-72
2022/12/25 00:08:47;;;;;;;10.63;7.18;;;30.00;81.70;;;;;;5043552;28;20063;-69
2022/12/25 00:11:18;;;;;;;12.80;7.45;;;30.40;79.60;;;;;;5053742;28;20156;-72
2022/12/25 00:13:46;;;;;;;12.80;8.45;;;31.10;79.70;;;;;;5044013;28;20037;-73
2022/12/25 00:16:17;;;;;;;12.65;7.68;;;30.80;72.60;;;;;;5035869;28;20033;-73
2022/12/25 00:18:45;;;;;;;11.80;7.63;;;30.90;74.70;;;;;;5036113;28;20044;-71
2022/12/25 00:21:13;;;;;;;10.55;6.90;;;31.50;73.00;;;;;;5035008;28;20104;-73
2022/12/25 00:23:41;;;;;;;10.52;7.43;;;31.70;73.30;;;;;;5037695;28;20033;-71
2022/12/25 00:26:14;;;;;;;12.50;7.38;;;31.60;67.10;;;;;;5038988;28;20025;-70
2022/12/25 00:28:41;;;;;;;9.43;7.07;;;31.40;72.90;;;;;;5037824;28;20074;-68
2022/12/25 00:31:11;;;;;;;12.50;7.07;;;32.20;72.30;;;;;;5033169;28;20033;-69
2022/12/25 00:33:40;;;;;;;11.65;6.80;;;31.80;70.30;;;;;;5037793;28;20017;-73
2022/12/25 00:36:09;;;;;;;10.60;7.57;;;32.30;67.20;;;;;;5049147;28;20423;-69
2022/12/25 00:38:38;;;;;;;9.60;6.90;;;31.10;68.50;;;;;;5040828;28;20044;-67
2022/12/25 00:41:10;;;;;;;10.48;7.50;;;31.50;68.60;;;;;;5038560;28;20021;-68
2022/12/25 00:43:38;;;;;;;11.52;8.00;;;31.40;68.80;;;;;;5049904;28;20021;-67
2022/12/25 00:46:06;;;;;;;11.48;6.90;;;31.50;72.90;;;;;;5039228;28;20370;-69
2022/12/25 00:48:34;;;;;;;12.50;7.70;;;32.10;72.50;;;;;;5037931;28;20443;-67
2022/12/25 00:51:04;;;;;;;10.07;7.05;;;32.40;67.30;;;;;;5037140;28;20033;-67
2022/12/25 00:53:32;;;;;;;9.82;7.05;;;33.10;68.30;;;;;;5035730;28;20025;-69
2022/12/25 00:56:03;;;;;;;14.48;7.53;;;33.50;67.60;;;;;;5037123;28;20021;-70
2022/12/25 00:58:33;;;;;;;8.45;7.45;;;34.00;65.10;;;;;;5033028;28;20463;-68
2022/12/25 01:01:01;;;;;;;9.73;7.53;;;33.80;62.90;;;;;;5048279;28;20029;-67
2022/12/25 01:03:29;;;;;;;11.40;7.78;;;33.20;67.00;;;;;;5039368;28;20071;-69
2022/12/25 01:06:02;;;;;;;9.68;5.95;;;33.20;66.50;;;;;;5030874;28;20125;-66
2022/12/25 01:08:30;;;;;;;;;;;33.00;61.70;;;;;;5037284;28;20095;-67
2022/12/25 01:11:00;;;;;;;10.57;6.80;;;33.00;65.50;;;;;;5044295;28;19913;-70
2022/12/25 01:13:28;;;;;;;10.48;7.05;;;33.60;64.60;;;;;;5038257;28;20017;-71
2022/12/25 01:15:56;;;;;;;11.18;6.65;;;34.20;63.00;;;;;;5032444;28;20032;-71
2022/12/25 01:18:24;;;;;;;11.38;6.90;;;34.50;62.30;;;;;;5030296;28;20034;-72
2022/12/25 01:20:51;;;;;;;11.63;7.30;;;34.40;59.40;;;;;;5027192;28;20563;-71
2022/12/25 01:23:19;;;;;;;12.48;6.80;;;33.80;59.30;;;;;;5027688;28;20036;-71
2022/12/25 01:25:46;;;;;;;13.30;7.53;;;33.40;60.70;;;;;;5029918;28;20165;-71
2022/12/25 01:28:14;;;;;;;10.70;7.13;;;33.00;61.20;;;;;;5029507;28;20075;-72
2022/12/25 01:30:48;;;;;;;10.02;7.25;;;32.90;62.40;;;;;;5029895;28;20021;-71
2022/12/25 01:33:15;;;;;;;;;;;32.60;62.30;;;;;;5030878;28;20435;-72
2022/12/25 01:35:42;;;;;;;10.75;7.90;;;32.50;60.80;;;;;;5031231;28;20355;-71
2022/12/25 01:38:09;;;;;;;29.65;22.17;;;32.60;65.30;;;;;;5031274;28;20029;-70
2022/12/25 01:40:36;;;;;;;25.73;18.48;;;32.90;64.10;;;;;;5031201;28;20035;-70
2022/12/25 01:43:04;;;;;;;11.10;6.88;;;33.60;63.30;;;;;;5031126;28;20025;-71
2022/12/25 01:45:36;;;;;;;12.52;7.40;;;33.10;60.80;;;;;;5031023;28;20032;-71
2022/12/25 01:48:09;;;;;;;18.63;11.30;;;33.10;63.30;;;;;;5031092;28;20039;-71
2022/12/25 01:50:40;;;;;;;13.20;7.35;;;33.40;62.30;;;;;;5031181;28;20472;-71
2022/12/25 01:53:08;;;;;;;11.60;7.68;;;33.40;61.40;;;;;;5035027;28;20108;-70
2022/12/25 01:55:37;;;;;;;9.13;6.60;;;33.10;59.20;;;;;;5047607;28;20434;-70
2022/12/25 01:58:05;;;;;;;8.82;6.88;;;32.30;61.10;;;;;;5050237;28;20029;-70
2022/12/25 02:00:32;;;;;;;78.25;59.13;;;32.60;61.90;;;;;;5050858;28;20044;-70
2022/12/25 02:02:59;;;;;;;38.42;25.70;;;33.00;65.50;;;;;;5050284;28;20029;-70
2022/12/25 02:05:33;;;;;;;37.53;28.80;;;33.10;63.10;;;;;;5050655;28;20021;-70
2022/12/25 02:08:10;;;;;;;54.78;41.95;;;33.80;60.80;;;;;;5050595;28;20029;-71
2022/12/25 02:10:43;;;;;;;11.63;8.00;;;34.20;61.30;;;;;;5050003;28;20051;-70
2022/12/25 02:13:13;;;;;;;10.40;7.20;;;34.40;58.50;;;;;;5050000;28;20025;-70
2022/12/25 02:16:08;;;;;;;12.02;8.48;;;33.80;58.00;;;;;;5050401;28;20031;-70
2022/12/25 02:18:44;;;;;;;12.43;9.35;;;33.40;59.40;;;;;;5050224;28;20410;-69
2022/12/25 02:21:47;;;;;;;10.07;8.00;;;33.80;60.30;;;;;;5050139;28;20726;-69
2022/12/25 02:24:42;;;;;;;9.30;7.80;;;33.40;59.80;;;;;;5050257;28;20033;-70
2022/12/25 02:27:38;;;;;;;7.70;6.53;;;33.50;60.70;;;;;;5049726;28;20074;-70
2022/12/25 02:30:11;;;;;;;8.38;6.88;;;33.80;59.20;;;;;;5050166;28;20069;-69
2022/12/25 02:34:01;;;;;;;10.40;7.25;;;34.10;59.40;;;;;;5050108;28;20048;-69
2022/12/25 02:35:52;;;;;;;12.55;8.27;;;34.40;57.90;;;;;;5049866;28;20536;-69
2022/12/25 02:41:43;;;;;;;10.70;7.85;;;34.30;57.90;;;;;;5042907;28;20164;-69
2022/12/25 03:07:20;;;;;;;9.43;7.72;;;35.90;57.80;;;;;;5050154;28;20076;-68
2022/12/25 03:12:46;;;;;;;9.27;7.40;;;36.40;54.30;;;;;;5049501;28;20087;-68
2022/12/25 03:18:02;;;;;;;12.13;7.93;;;36.10;54.90;;;;;;5049216;28;20076;-68
2022/12/25 03:28:52;;;;;;;8.27;6.53;;;36.30;55.60;;;;;;5050916;28;20071;-68
2022/12/25 03:31:30;;;;;;;7.97;7.18;;;36.60;53.90;;;;;;5048906;28;20092;-68
2022/12/25 04:36:32;;;;;;;13.48;9.65;;;34.20;59.40;;;;;;5032480;28;20037;-68
2022/12/25 04:38:59;;;;;;;11.63;9.15;;;34.50;58.80;;;;;;5032323;28;20037;-68
2022/12/25 04:41:26;;;;;;;11.70;9.00;;;34.70;58.30;;;;;;5032222;28;20017;-68
2022/12/25 04:43:53;;;;;;;13.13;9.93;;;34.80;57.20;;;;;;5032667;28;20514;-68
2022/12/25 04:46:20;;;;;;;9.40;8.30;;;34.30;59.20;;;;;;5032511;28;20080;-68
2022/12/25 04:48:48;;;;;;;13.80;8.98;;;34.20;58.50;;;;;;5031209;28;20025;-67
2022/12/25 04:51:16;;;;;;;13.77;8.90;;;33.80;59.90;;;;;;5032224;28;20520;-69
2022/12/25 04:53:47;;;;;;;11.57;8.30;;;33.50;60.30;;;;;;5032113;28;20049;-69
2022/12/25 04:56:15;;;;;;;13.90;9.00;;;33.40;60.50;;;;;;5031786;28;20109;-68
2022/12/25 04:58:43;;;;;;;12.52;8.52;;;33.40;60.50;;;;;;5032011;28;20126;-68
2022/12/25 05:01:12;;;;;;;10.75;8.60;;;33.60;60.50;;;;;;5045745;28;20025;-68
2022/12/25 05:03:39;;;;;;;15.75;8.95;;;33.70;60.50;;;;;;5051970;28;20169;-68
2022/12/25 05:06:07;;;;;;;11.25;8.65;;;33.60;61.00;;;;;;5051583;28;20027;-68
2022/12/25 05:08:35;;;;;;;20.77;10.65;;;33.10;61.30;;;;;;5051723;28;20104;-68
2022/12/25 05:11:09;;;;;;;10.45;8.57;;;33.30;61.80;;;;;;5051556;28;20029;-69
2022/12/25 05:13:36;;;;;;;14.13;9.73;;;33.30;61.80;;;;;;5051524;28;20095;-68
2022/12/25 05:16:09;;;;;;;11.75;7.93;;;33.00;62.20;;;;;;5051680;28;20029;-68
2022/12/25 05:18:36;;;;;;;11.05;8.52;;;33.20;61.40;;;;;;5045012;28;20039;-68
2022/12/25 05:21:04;;;;;;;13.15;9.40;;;33.10;62.10;;;;;;5030091;28;20454;-68
2022/12/25 05:23:31;;;;;;;11.52;8.85;;;33.10;62.10;;;;;;5031543;28;20117;-68
2022/12/25 05:25:58;;;;;;;13.23;9.48;;;32.80;63.50;;;;;;5031206;28;20413;-68
2022/12/25 05:28:26;;;;;;;9.88;8.05;;;32.50;63.90;;;;;;5031447;28;20025;-67
2022/12/25 05:30:56;;;;;;;11.98;8.18;;;32.70;63.40;;;;;;5031819;28;20040;-68
2022/12/25 05:33:24;;;;;;;9.82;8.50;;;32.80;63.80;;;;;;5031835;28;20030;-69
2022/12/25 05:35:51;;;;;;;11.65;8.20;;;33.00;63.70;;;;;;5031678;28;20478;-68
2022/12/25 05:38:18;;;;;;;10.80;8.35;;;32.90;63.70;;;;;;5031190;28;20041;-68
2022/12/25 05:40:45;;;;;;;12.38;8.57;;;32.30;64.10;;;;;;5030959;28;20083;-68
2022/12/25 05:43:13;;;;;;;12.25;9.38;;;32.50;64.60;;;;;;5031046;28;20034;-68
2022/12/25 05:45:40;;;;;;;10.57;7.75;;;32.50;64.60;;;;;;5047903;28;20044;-68
2022/12/25 05:48:08;;;;;;;11.38;8.45;;;32.50;64.70;;;;;;5051023;28;20041;-68
2022/12/25 05:50:37;;;;;;;12.35;8.63;;;32.60;64.70;;;;;;5047288;28;20029;-68
2022/12/25 05:53:13;;;;;;;9.70;7.50;;;32.80;64.40;;;;;;5029206;28;20029;-69
2022/12/25 05:55:42;;;;;;;9.85;7.97;;;32.90;63.50;;;;;;5030813;28;20077;-68
2022/12/25 05:58:11;;;;;;;11.43;7.22;;;33.00;63.30;;;;;;5030854;28;20033;-68
2022/12/25 06:00:39;;;;;;;10.27;7.72;;;33.30;63.20;;;;;;5030885;28;20049;-68
2022/12/25 06:03:06;;;;;;;11.05;7.75;;;33.30;61.80;;;;;;5030961;28;20037;-68
2022/12/25 06:05:33;;;;;;;11.57;7.85;;;33.20;61.30;;;;;;5030393;28;20096;-68
2022/12/25 06:08:00;;;;;;;10.73;8.20;;;33.00;61.20;;;;;;5030665;28;20040;-69
2022/12/25 06:10:27;;;;;;;9.57;8.00;;;32.90;61.70;;;;;;5030628;28;20081;-68
2022/12/25 06:12:55;;;;;;;14.13;8.40;;;32.80;61.90;;;;;;5031056;28;20116;-68
2022/12/25 06:15:22;;;;;;;12.82;8.23;;;32.90;61.90;;;;;;5030981;28;20040;-68
2022/12/25 06:17:49;;;;;;;12.88;7.32;;;33.00;61.50;;;;;;5030213;28;20029;-69
2022/12/25 06:20:17;;;;;;;7.68;6.40;;;33.20;60.00;;;;;;5029626;28;20096;-68
2022/12/25 06:22:44;;;;;;;11.50;7.25;;;33.50;57.00;;;;;;5029869;28;20025;-68
2022/12/25 06:25:11;;;;;;;9.07;7.85;;;33.80;59.00;;;;;;5039442;28;20029;-68
2022/12/25 06:27:38;;;;;;;8.93;8.02;;;33.80;59.20;;;;;;5049583;28;20039;-69
2022/12/25 06:30:06;;;;;;;11.10;7.55;;;33.60;59.40;;;;;;5049520;28;20028;-68
2022/12/25 06:32:34;;;;;;;12.77;6.88;;;33.60;58.30;;;;;;5047030;28;20077;-69
2022/12/25 06:35:01;;;;;;;7.22;6.53;;;33.70;56.40;;;;;;5029399;28;20075;-68
2022/12/25 06:37:28;;;;;;;7.97;6.07;;;33.80;56.00;;;;;;5029590;28;20167;-68
2022/12/25 06:39:56;;;;;;;9.20;7.70;;;33.90;56.90;;;;;;5029967;28;20025;-68
2022/12/25 06:42:23;;;;;;;10.73;7.47;;;33.90;56.90;;;;;;5028325;28;20025;-68
2022/12/25 06:44:50;;;;;;;9.38;5.90;;;34.00;56.40;;;;;;5029220;28;20024;-68
2022/12/25 06:47:17;;;;;;;6.65;5.07;;;34.00;55.20;;;;;;5029124;28;20096;-69
2022/12/25 06:49:45;;;;;;;6.47;5.05;;;34.00;52.00;;;;;;5029318;28;20390;-69
2022/12/25 06:52:12;;;;;;;8.60;6.18;;;34.00;52.90;;;;;;5027883;28;20030;-68
2022/12/25 06:54:39;;;;;;;10.27;6.30;;;33.90;54.50;;;;;;5029207;28;20032;-69
2022/12/25 06:57:06;;;;;;;8.88;5.22;;;33.70;54.90;;;;;;5028152;28;20062;-68
2022/12/25 06:59:34;;;;;;;7.78;4.35;;;33.70;53.70;;;;;;5029162;28;20044;-68
2022/12/25 07:02:01;;;;;;;5.40;3.90;;;33.70;53.70;;;;;;5028965;28;20037;-68
2022/12/25 07:04:36;;;;;;;6.20;4.13;;;33.60;52.50;;;;;;5028144;28;20030;-68
2022/12/25 07:07:05;;;;;;;5.88;3.85;;;33.30;52.50;;;;;;5028840;28;20034;-68
2022/12/25 07:09:33;;;;;;;6.28;4.38;;;33.10;52.50;;;;;;5029006;28;20422;-67
2022/12/25 07:12:26;;;;;;;5.80;4.05;;;33.10;53.90;;;;;;5028817;28;20025;-68
2022/12/25 07:14:55;;;;;;;5.68;3.15;;;32.80;53.10;;;;;;5030047;28;20060;-69
2022/12/25 07:17:23;;;;;;;5.32;3.40;;;32.40;54.00;;;;;;5028901;28;20154;-68
2022/12/25 07:19:51;;;;;;;5.82;2.90;;;32.30;54.20;;;;;;5028707;28;20488;-69
2022/12/25 07:22:18;;;;;;;3.33;2.97;;;32.40;54.00;;;;;;5029817;28;20045;-69
2022/12/25 07:24:45;;;;;;;5.05;3.22;;;32.50;53.40;;;;;;5048647;28;20029;-68
2022/12/25 07:27:13;;;;;;;4.32;3.05;;;32.60;53.30;;;;;;5048448;28;20029;-69
2022/12/25 07:29:40;;;;;;;4.82;2.75;;;32.60;53.80;;;;;;5048269;28;20082;-70
2022/12/25 07:32:07;;;;;;;3.55;2.38;;;32.70;53.90;;;;;;5048552;28;20029;-70
2022/12/25 07:34:34;;;;;;;3.85;2.13;;;32.50;53.60;;;;;;5048619;28;20023;-70
2022/12/25 07:37:01;;;;;;;4.18;2.22;;;32.30;54.20;;;;;;5048612;28;20071;-70
2022/12/25 07:39:29;;;;;;;6.55;2.42;;;32.20;54.70;;;;;;5032852;28;20096;-70
2022/12/25 07:41:56;;;;;;;4.03;1.70;;;32.00;55.10;;;;;;5028966;28;20018;-70
2022/12/25 07:44:23;;;;;;;3.30;2.47;;;31.80;55.30;;;;;;5029010;28;20072;-71
2022/12/25 07:46:50;;;;;;;6.85;2.17;;;31.60;56.40;;;;;;5028416;28;20138;-72
2022/12/25 07:49:18;;;;;;;4.07;2.35;;;31.30;56.60;;;;;;5048049;28;20417;-71
2022/12/25 07:51:45;;;;;;;3.97;2.03;;;31.00;57.20;;;;;;5048439;28;20465;-72
2022/12/25 07:54:12;;;;;;;3.53;2.10;;;30.70;57.80;;;;;;5048393;28;20029;-71
2022/12/25 07:56:39;;;;;;;2.55;1.77;;;30.30;57.80;;;;;;5047758;28;20134;-71
2022/12/25 07:59:06;;;;;;;3.78;1.70;;;30.20;58.20;;;;;;5048227;28;20033;-72
2022/12/25 08:01:34;;;;;;;2.70;1.83;;;30.00;58.70;;;;;;5046975;28;20021;-72
2022/12/25 08:04:02;;;;;;;3.83;1.83;;;29.90;59.60;;;;;;5043167;28;20108;-71
2022/12/25 08:06:34;;;;;;;3.88;1.90;;;29.80;59.90;;;;;;5028210;28;20415;-71
2022/12/25 08:09:10;;;;;;;3.50;1.67;;;29.60;60.30;;;;;;5028319;28;20111;-72
2022/12/25 08:11:38;;;;;;;7.60;2.30;;;29.50;60.70;;;;;;5028028;28;20486;-70
2022/12/25 08:14:06;;;;;;;5.00;2.00;;;29.40;61.00;;;;;;5028075;28;20125;-70
2022/12/25 08:16:34;;;;;;;9.85;2.50;;;29.30;61.70;;;;;;5031823;28;20022;-71
2022/12/25 08:19:01;;;;;;;3.70;1.77;;;29.20;61.80;;;;;;5031842;28;20041;-70
2022/12/25 08:21:29;;;;;;;4.03;2.03;;;29.10;62.00;;;;;;5032041;28;20026;-70
2022/12/25 08:23:56;;;;;;;4.05;2.20;;;29.00;63.00;;;;;;5032561;28;20033;-71
2022/12/25 08:26:24;;;;;;;3.83;2.33;;;28.90;63.80;;;;;;5032029;28;20013;-71
2022/12/25 08:28:51;;;;;;;5.82;2.33;;;28.80;64.30;;;;;;5047907;28;20500;-72
2022/12/25 08:31:25;;;;;;;3.92;1.80;;;28.70;64.70;;;;;;5049780;28;20029;-71
2022/12/25 08:33:56;;;;;;;3.17;2.10;;;28.60;64.70;;;;;;5035278;28;20050;-64
2022/12/25 08:36:23;;;;;;;4.60;2.13;;;28.50;65.40;;;;;;5031652;28;20173;-64
2022/12/25 08:38:50;;;;;;;2.65;1.75;;;28.40;66.50;;;;;;5045732;28;20552;-73
2022/12/25 08:41:18;;;;;;;3.72;1.92;;;28.30;67.10;;;;;;5035698;28;20559;-71
2022/12/25 08:43:46;;;;;;;3.03;2.10;;;28.20;67.60;;;;;;5049829;28;20060;-71
2022/12/25 08:46:14;;;;;;;3.45;1.95;;;28.10;68.70;;;;;;5035563;28;20060;-70
2022/12/25 08:48:46;;;;;;;4.55;2.30;;;28.00;69.20;;;;;;5042863;28;20033;-72
2022/12/25 08:51:20;;;;;;;5.25;2.25;;;27.80;70.00;;;;;;5042349;28;20394;-73
2022/12/25 08:53:48;;;;;;;5.60;2.28;;;27.70;70.90;;;;;;5037835;28;20029;-72
2022/12/25 08:56:17;;;;;;;6.13;2.42;;;27.60;71.50;;;;;;5027132;28;20402;-72
2022/12/25 08:58:44;;;;;;;3.85;2.33;;;27.50;72.70;;;;;;5037063;28;20048;-72
2022/12/25 09:01:12;;;;;;;4.43;2.67;;;27.40;73.60;;;;;;5048834;28;20032;-71
2022/12/25 09:03:40;;;;;;;4.93;2.50;;;27.20;74.90;;;;;;5035458;28;20033;-70
2022/12/25 09:06:11;;;;;;;9.20;2.95;;;27.10;75.80;;;;;;5037074;28;20477;-71
2022/12/25 09:08:39;;;;;;;3.15;2.05;;;27.00;76.70;;;;;;5032651;28;20037;-70
2022/12/25 09:11:10;;;;;;;3.83;2.40;;;26.90;77.90;;;;;;5032765;28;20025;-70
2022/12/25 09:13:38;;;;;;;4.30;2.80;;;26.80;78.40;;;;;;5030273;28;20029;-71
2022/12/25 09:16:15;;;;;;;5.65;2.75;;;26.70;80.40;;;;;;5048622;28;20152;-71
2022/12/25 09:18:42;;;;;;;6.05;2.83;;;26.60;81.00;;;;;;5032925;28;20033;-74
2022/12/25 09:21:14;;;;;;;3.90;2.72;;;26.50;82.40;;;;;;5041386;28;20115;-71
2022/12/25 09:23:42;;;;;;;5.90;2.92;;;26.40;83.50;;;;;;5029649;28;20124;-72
2022/12/25 09:26:14;;;;;;;6.07;2.88;;;26.30;84.70;;;;;;5029785;28;20573;-73
2022/12/25 09:28:42;;;;;;;10.95;3.50;;;26.20;87.00;;;;;;5039426;28;20029;-73
2022/12/25 09:31:09;;;;;;;6.53;4.75;;;26.20;90.40;;;;;;5028611;28;20112;-72
2022/12/25 09:33:36;;;;;;;4.97;3.72;;;26.10;91.30;;;;;;5039096;28;20051;-71
2022/12/25 09:36:07;;;;;;;8.05;4.10;;;26.00;92.10;;;;;;5028931;28;20434;-72
2022/12/25 09:38:35;;;;;;;9.38;5.00;;;25.80;92.90;;;;;;5040775;28;20033;-72
2022/12/25 09:41:08;;;;;;;7.97;5.03;;;25.70;93.50;;;;;;5037544;28;20055;-70
2022/12/25 09:44:01;;;;;;;7.32;4.32;;;25.60;94.10;;;;;;5047849;28;20452;-73
2022/12/25 09:46:39;;;;;;;6.97;4.85;;;25.50;94.90;;;;;;5047660;28;20074;-71
2022/12/25 09:49:37;;;;;;;10.75;5.45;;;25.40;95.70;;;;;;5046275;28;20033;-73
2022/12/25 09:52:16;;;;;;;9.82;5.68;;;25.30;96.30;;;;;;5036885;28;20029;-72
2022/12/25 09:55:02;;;;;;;9.35;6.10;;;25.20;96.80;;;;;;5027516;28;20044;-71
2022/12/25 09:57:30;;;;;;;8.75;5.35;;;25.10;97.30;;;;;;5028070;28;20144;-73
2022/12/25 09:59:57;;;;;;;10.90;6.15;;;25.00;97.90;;;;;;5028011;28;20109;-72
2022/12/25 10:02:55;;;;;;;7.53;5.13;;;24.90;98.40;;;;;;5028262;28;20111;-73
2022/12/25 10:06:07;;;;;;;11.82;6.38;;;24.80;98.70;;;;;;5027196;28;20120;-71
2022/12/25 10:08:56;;;;;;;8.23;5.82;;;24.70;99.20;;;;;;5047077;28;20037;-74
2022/12/25 10:11:42;;;;;;;9.85;6.53;;;24.60;99.80;;;;;;5045975;28;20025;-75
2022/12/25 10:14:34;;;;;;;6.93;5.47;;;24.50;99.90;;;;;;5045644;28;20667;-75
2022/12/25 10:17:30;;;;;;;9.85;5.30;;;24.40;99.90;;;;;;5045317;28;20029;-75
2022/12/25 10:20:15;;;;;;;7.70;6.03;;;24.30;99.90;;;;;;5046786;28;20168;-75
2022/12/25 10:22:50;;;;;;;9.23;5.70;;;24.30;99.90;;;;;;5044398;28;20047;-75
2022/12/25 10:25:22;;;;;;;10.10;5.95;;;24.20;99.90;;;;;;5028173;28;20797;-75
2022/12/25 10:28:04;;;;;;;7.88;5.80;;;24.10;99.90;;;;;;5027990;28;20034;-74
2022/12/25 10:30:32;;;;;;;8.07;6.32;;;24.00;99.90;;;;;;5031334;28;20041;-74
2022/12/25 10:32:59;;;;;;;7.93;5.72;;;23.90;99.90;;;;;;5028540;28;20087;-67
2022/12/25 10:35:30;;;;;;;7.07;5.88;;;23.90;99.90;;;;;;5034928;28;20100;-74
2022/12/25 10:38:06;;;;;;;10.60;5.38;;;23.80;99.90;;;;;;5042795;28;20149;-74
2022/12/25 10:41:18;;;;;;;12.63;6.07;;;23.70;99.90;;;;;;5028538;28;20054;-75
2022/12/25 10:43:55;;;;;;;7.50;6.22;;;23.60;99.90;;;;;;5035683;28;20133;-75
2022/12/25 10:46:25;;;;;;;9.20;5.80;;;23.50;99.90;;;;;;5041245;28;20049;-75
2022/12/25 10:48:59;;;;;;;8.50;6.35;;;23.40;99.90;;;;;;5047016;28;20052;-75
2022/12/25 10:51:37;;;;;;;9.55;5.90;;;23.40;99.90;;;;;;5030415;28;20037;-74
2022/12/25 10:54:33;;;;;;;7.55;6.15;;;23.30;99.90;;;;;;5035614;28;20037;-75
2022/12/25 10:57:03;;;;;;;9.20;6.28;;;23.20;99.90;;;;;;5037753;28;20033;-75
2022/12/25 10:59:35;;;;;;;8.40;6.47;;;23.10;99.90;;;;;;5028776;28;20406;-74
2022/12/25 11:02:27;;;;;;;7.07;5.75;;;23.00;99.90;;;;;;5044329;28;20040;-76
2022/12/25 11:05:04;;;;;;;11.13;6.15;;;23.00;99.90;;;;;;5026570;28;20030;-75
2022/12/25 11:07:32;;;;;;;8.95;6.45;;;23.00;99.90;;;;;;5029246;28;20029;-77
2022/12/25 11:10:17;;;;;;;10.73;6.40;;;22.90;99.90;;;;;;5030410;28;20074;-71
2022/12/25 11:12:45;;;;;;;7.15;6.38;;;22.70;99.90;;;;;;5026916;28;20025;-75
2022/12/25 11:15:31;;;;;;;7.68;5.88;;;22.70;99.90;;;;;;5029443;28;20033;-75
2022/12/25 11:17:58;;;;;;;8.80;5.85;;;22.60;99.90;;;;;;5027444;28;20040;-77
2022/12/25 11:20:25;;;;;;;8.23;5.85;;;22.50;99.90;;;;;;5042244;28;20029;-80
2022/12/25 11:22:53;;;;;;;6.93;6.18;;;22.30;99.90;;;;;;5055266;28;20067;-78
2022/12/25 11:25:26;;;;;;;7.75;6.90;;;22.10;99.90;;;;;;5039088;28;20116;-78
2022/12/25 11:28:02;;;;;;;7.90;6.70;;;22.00;99.90;;;;;;5046830;28;20025;-78
2022/12/25 11:30:31;;;;;;;8.23;6.30;;;21.90;99.90;;;;;;5055890;28;20435;-75
2022/12/25 11:33:10;;;;;;;7.55;6.70;;;21.80;99.90;;;;;;5036108;28;20081;-78
2022/12/25 11:35:49;;;;;;;11.27;6.32;;;21.80;99.90;;;;;;5044936;28;20017;-78
2022/12/25 11:38:16;;;;;;;7.50;6.50;;;21.60;99.90;;;;;;5050837;28;20094;-78
2022/12/25 11:40:48;;;;;;;11.85;7.43;;;21.40;99.90;;;;;;5049168;28;20029;-76
2022/12/25 11:43:35;;;;;;;11.10;6.68;;;21.30;99.90;;;;;;5039950;28;20039;-75
2022/12/25 11:46:42;;;;;;;9.65;7.25;;;21.30;99.90;;;;;;5027775;28;20387;-74
2022/12/25 11:49:15;;;;;;;9.57;7.05;;;21.20;99.90;;;;;;5052475;28;20593;-76
2022/12/25 11:51:46;;;;;;;9.48;7.50;;;21.20;99.90;;;;;;5061679;28;20128;-77
2022/12/25 11:54:24;;;;;;;9.05;6.88;;;21.10;99.90;;;;;;5038894;28;20036;-76
2022/12/25 11:56:52;;;;;;;7.53;6.45;;;21.00;99.90;;;;;;5048042;28;20545;-75
2022/12/25 11:59:25;;;;;;;7.63;6.80;;;20.90;99.90;;;;;;5052191;28;20053;-77
2022/12/25 12:01:58;;;;;;;10.55;7.82;;;20.80;99.90;;;;;;5047591;28;20053;-75
2022/12/25 12:04:37;;;;;;;12.13;8.18;;;20.70;99.90;;;;;;5033860;28;20029;-76
2022/12/25 12:07:29;;;;;;;11.10;8.02;;;20.70;99.90;;;;;;5031518;28;20095;-76
2022/12/25 12:10:15;;;;;;;12.18;8.75;;;20.60;99.90;;;;;;5031767;28;20039;-74
2022/12/25 12:13:02;;;;;;;16.25;9.80;;;20.50;99.90;;;;;;5043450;28;20052;-77
2022/12/25 12:15:44;;;;;;;11.52;8.27;;;20.50;99.90;;;;;;5040924;28;20063;-77
2022/12/25 12:18:27;;;;;;;12.05;9.15;;;20.50;99.90;;;;;;5030712;28;20044;-77
2022/12/25 12:21:02;;;;;;;11.52;9.30;;;20.40;99.90;;;;;;5030805;28;20694;-77
2022/12/25 12:23:30;;;;;;;;;;;20.30;99.90;;;;;;5031620;28;20104;-76
2022/12/25 12:25:57;;;;;;;13.10;9.57;;;20.30;99.90;;;;;;5032517;28;19913;-75
2022/12/25 12:28:28;;;;;;;12.15;9.32;;;20.20;99.90;;;;;;5042914;28;20627;-77
2022/12/25 12:31:05;;;;;;;14.98;12.68;;;20.10;99.90;;;;;;5051908;28;20090;-77
2022/12/25 12:33:40;;;;;;;14.80;11.65;;;20.10;99.90;;;;;;5036426;28;20052;-78
2022/12/25 12:36:13;;;;;;;17.00;13.10;;;20.20;99.90;;;;;;5050898;28;20112;-77
2022/12/25 12:38:42;;;;;;;18.38;12.85;;;20.10;99.90;;;;;;5057883;28;20037;-76
2022/12/25 12:41:13;;;;;;;15.68;11.98;;;20.10;99.90;;;;;;5039312;28;20056;-76
2022/12/25 12:43:57;;;;;;;14.23;11.68;;;20.10;99.90;;;;;;5029522;28;20132;-75
2022/12/25 12:46:34;;;;;;;13.43;10.27;;;20.20;99.90;;;;;;5031728;28;20049;-76
2022/12/25 12:49:11;;;;;;;14.63;11.75;;;20.10;99.90;;;;;;5036300;28;20037;-72
2022/12/25 12:51:38;;;;;;;15.95;11.95;;;20.20;99.90;;;;;;5052014;28;20025;-78
2022/12/25 12:54:16;;;;;;;15.05;11.10;;;20.30;99.90;;;;;;5057879;28;20074;-77
2022/12/25 12:56:58;;;;;;;16.80;12.45;;;20.20;99.90;;;;;;5041898;28;20121;-76
2022/12/25 12:59:27;;;;;;;16.48;13.45;;;20.30;99.90;;;;;;5047937;28;20041;-76
2022/12/25 13:02:20;;;;;;;16.55;12.65;;;20.50;99.90;;;;;;5047991;28;20087;-75
2022/12/25 13:05:00;;;;;;;16.35;12.35;;;20.50;99.90;;;;;;5032176;28;20123;-70
2022/12/25 13:07:42;;;;;;;11.85;10.30;;;20.50;99.90;;;;;;5047668;28;20037;-76
2022/12/25 13:10:19;;;;;;;15.05;12.02;;;20.40;99.90;;;;;;5049095;28;20024;-76
2022/12/25 13:12:50;;;;;;;14.65;11.88;;;20.30;99.90;;;;;;5032159;28;20114;-75
2022/12/25 13:15:19;;;;;;;15.10;11.35;;;20.20;99.90;;;;;;5029004;28;20055;-77
2022/12/25 13:17:48;;;;;;;16.35;11.02;;;20.10;99.90;;;;;;5028646;28;20347;-77
2022/12/25 13:20:38;;;;;;;14.32;10.23;;;20.00;99.90;;;;;;5028646;28;20876;-76
2022/12/25 13:23:36;;;;;;;13.57;10.05;;;19.90;99.90;;;;;;5028363;28;20106;-76
2022/12/25 13:26:15;;;;;;;17.45;11.35;;;19.80;99.90;;;;;;5030529;28;20124;-76
2022/12/25 13:28:45;;;;;;;14.15;11.95;;;19.70;99.90;;;;;;5035144;28;20030;-78
2022/12/25 13:31:26;;;;;;;17.63;11.30;;;19.60;99.90;;;;;;5030613;28;20372;-74
2022/12/25 13:34:06;;;;;;;14.68;10.52;;;19.50;99.90;;;;;;5029000;28;20104;-75
2022/12/25 13:36:38;;;;;;;15.05;11.00;;;19.50;99.90;;;;;;5038166;28;20406;-77
2022/12/25 13:39:14;;;;;;;16.92;12.30;;;19.40;99.90;;;;;;5050570;28;20056;-77
2022/12/25 13:42:04;;;;;;;15.98;12.88;;;19.40;99.90;;;;;;5049391;28;20025;-75
2022/12/25 13:44:50;;;;;;;19.10;14.57;;;19.40;99.90;;;;;;5043892;28;20035;-77
2022/12/25 13:47:31;;;;;;;16.65;13.00;;;19.50;99.90;;;;;;5047141;28;20094;-76
2022/12/25 13:50:01;;;;;;;15.93;12.63;;;19.50;99.90;;;;;;5050706;28;20355;-77
2022/12/25 13:52:35;;;;;;;20.02;15.40;;;19.40;99.90;;;;;;5042319;28;20028;-77
2022/12/25 13:55:18;;;;;;;22.27;13.88;;;19.40;99.90;;;;;;5047179;28;20470;-69
2022/12/25 13:57:55;;;;;;;17.23;15.20;;;19.40;99.90;;;;;;5035375;28;20049;-77
2022/12/25 14:00:29;;;;;;;21.35;18.70;;;19.40;99.90;;;;;;5037495;28;20025;-76
2022/12/25 14:02:56;;;;;;;;;;;19.40;99.90;;;;;;5039508;28;20529;-76
2022/12/25 14:05:32;;;;;;;22.42;15.40;;;19.40;99.90;;;;;;5030614;28;19905;-76
2022/12/25 14:08:12;;;;;;;22.42;17.05;;;19.40;99.90;;;;;;5048475;28;20429;-76
2022/12/25 14:10:40;;;;;;;23.45;19.60;;;19.40;99.90;;;;;;5050608;28;20031;-75
2022/12/25 14:13:12;;;;;;;26.15;19.80;;;19.40;99.90;;;;;;5050116;28;20366;-76
2022/12/25 14:15:40;;;;;;;22.77;18.30;;;19.40;99.90;;;;;;5045456;28;20017;-76
2022/12/25 14:18:14;;;;;;;25.83;19.77;;;19.40;99.90;;;;;;5038379;28;20033;-77
2022/12/25 14:21:02;;;;;;;22.63;19.27;;;19.50;99.90;;;;;;5031508;28;20033;-76
2022/12/25 14:23:50;;;;;;;34.20;22.08;;;19.50;99.90;;;;;;5043790;28;20033;-75
2022/12/25 14:26:18;;;;;;;25.95;20.50;;;19.50;99.90;;;;;;5031263;28;20445;-75
2022/12/25 14:29:08;;;;;;;25.40;20.42;;;19.60;99.90;;;;;;5031393;28;20415;-76
2022/12/25 14:31:37;;;;;;;22.77;18.30;;;19.60;99.90;;;;;;5040789;28;20041;-75
2022/12/25 14:34:26;;;;;;;30.73;19.98;;;19.60;99.90;;;;;;5044805;28;20057;-75
2022/12/25 14:36:53;;;;;;;42.17;28.63;;;19.60;99.90;;;;;;5045289;28;20756;-75
2022/12/25 14:39:32;;;;;;;50.65;37.45;;;19.50;99.90;;;;;;5049716;28;20064;-76
2022/12/25 14:42:01;;;;;;;47.28;36.50;;;19.50;99.90;;;;;;5038877;28;20021;-75
2022/12/25 14:44:38;;;;;;;41.28;30.98;;;19.40;99.90;;;;;;5029969;28;20033;-74
2022/12/25 14:47:13;;;;;;;42.35;30.38;;;19.40;99.90;;;;;;5041492;28;20354;-75
2022/12/25 14:49:41;;;;;;;33.10;24.23;;;19.30;99.90;;;;;;5040731;28;20475;-75
2022/12/25 14:52:25;;;;;;;30.45;22.27;;;19.20;99.90;;;;;;5030693;28;20026;-74